createdAt,value
2022-10-04T00:02:34.270Z,9.05
2022-10-04T00:05:08.138Z,8.81
2022-10-04T00:07:37.165Z,8.76
2022-10-04T00:10:18.527Z,8.75
2022-10-04T00:12:49.960Z,8.73
2022-10-04T00:15:27.272Z,8.70
2022-10-04T00:18:06.351Z,8.67
2022-10-04T00:21:00.372Z,8.62
2022-10-04T00:23:31.648Z,8.58
2022-10-04T00:26:02.222Z,8.57
2022-10-04T00:28:44.336Z,8.55
2022-10-04T00:31:25.929Z,8.53
2022-10-04T00:33:56.515Z,8.48
2022-10-04T00:36:40.996Z,8.44
2022-10-04T00:39:27.620Z,8.44
2022-10-04T00:42:04.087Z,8.39
2022-10-04T00:44:40.286Z,8.22
2022-10-04T00:47:25.055Z,8.30
2022-10-04T00:49:59.115Z,8.25
2022-10-04T00:52:31.070Z,8.04
2022-10-04T00:55:05.455Z,8.03
2022-10-04T00:57:39.502Z,8.16
2022-10-04T01:00:13.502Z,8.10
2022-10-04T01:02:53.229Z,8.09
2022-10-04T01:05:26.679Z,8.05
2022-10-04T01:07:59.323Z,8.01
2022-10-04T01:10:31.849Z,7.99
2022-10-04T01:13:06.107Z,7.79
2022-10-04T01:15:43.296Z,7.44
2022-10-04T01:18:16.279Z,7.92
2022-10-04T01:20:55.227Z,7.89
2022-10-04T01:23:37.943Z,7.58
2022-10-04T01:26:08.259Z,7.84
2022-10-04T01:28:38.665Z,7.79
2022-10-04T01:31:07.376Z,7.75
2022-10-04T01:33:37.346Z,7.71
2022-10-04T01:36:06.014Z,7.72
2022-10-04T01:38:36.188Z,7.70
2022-10-04T01:41:08.219Z,7.66
2022-10-04T01:43:40.209Z,7.63
2022-10-04T01:46:14.859Z,7.53
2022-10-04T01:48:46.138Z,7.58
2022-10-04T01:51:20.075Z,7.39
2022-10-04T01:53:55.971Z,7.06
2022-10-04T01:56:29.288Z,7.13
2022-10-04T01:59:01.222Z,7.47
2022-10-04T02:01:37.156Z,7.49
2022-10-04T02:04:11.744Z,7.44
2022-10-04T02:06:44.608Z,7.37
2022-10-04T02:09:17.534Z,7.33
2022-10-04T02:11:51.451Z,7.34
2022-10-04T02:14:23.039Z,7.34
2022-10-04T02:16:54.123Z,7.34
2022-10-04T02:19:25.493Z,7.33
2022-10-04T02:21:55.514Z,7.33
2022-10-04T02:24:25.842Z,7.35
2022-10-04T02:26:55.850Z,7.33
2022-10-04T02:29:24.351Z,7.33
2022-10-04T02:32:10.963Z,7.08
2022-10-04T02:34:41.158Z,7.33
2022-10-04T02:37:10.028Z,7.37
2022-10-04T02:39:45.432Z,7.39
2022-10-04T02:42:22.643Z,7.36
2022-10-04T02:44:58.963Z,6.88
2022-10-04T02:47:31.034Z,7.37
2022-10-04T02:50:06.727Z,7.42
2022-10-04T02:52:40.619Z,7.41
2022-10-04T02:55:20.704Z,7.34
2022-10-04T02:57:50.147Z,7.39
2022-10-04T03:00:21.486Z,7.40
2022-10-04T03:03:19.453Z,7.44
2022-10-04T03:05:57.475Z,7.45
2022-10-04T03:08:26.737Z,7.49
2022-10-04T03:10:57.228Z,7.48
2022-10-04T03:13:26.232Z,7.50
2022-10-04T03:15:54.731Z,7.39
2022-10-04T03:18:24.463Z,7.13
2022-10-04T03:20:52.951Z,7.29
2022-10-04T03:23:22.432Z,7.24
2022-10-04T03:25:55.083Z,7.26
2022-10-04T03:28:25.248Z,7.29
2022-10-04T03:30:53.949Z,7.34
2022-10-04T03:33:26.159Z,7.14
2022-10-04T03:35:56.983Z,7.35
2022-10-04T03:38:26.607Z,7.25
2022-10-04T03:40:58.542Z,6.63
2022-10-04T03:43:31.900Z,7.29
2022-10-04T03:46:02.916Z,7.31
2022-10-04T03:48:35.769Z,7.19
2022-10-04T03:51:06.658Z,7.25
2022-10-04T03:53:43.348Z,7.04
2022-10-04T03:56:15.231Z,7.01
2022-10-04T03:58:46.767Z,7.21
2022-10-04T04:01:24.266Z,6.54
2022-10-04T04:04:03.422Z,6.92
2022-10-04T04:06:41.291Z,7.29
2022-10-04T04:09:20.354Z,7.31
2022-10-04T04:11:52.574Z,7.20
2022-10-04T04:14:26.512Z,7.24
2022-10-04T04:16:56.307Z,7.36
2022-10-04T04:19:27.210Z,7.39
2022-10-04T04:21:56.927Z,7.40
2022-10-04T04:24:29.482Z,7.46
2022-10-04T04:27:01.578Z,6.77
2022-10-04T04:29:35.219Z,7.50
2022-10-04T04:32:07.380Z,7.08
2022-10-04T04:34:50.289Z,7.32
2022-10-04T04:37:18.704Z,7.56
2022-10-04T04:39:52.426Z,7.62
2022-10-04T04:42:23.801Z,7.55
2022-10-04T04:44:57.293Z,7.65
2022-10-04T04:47:31.645Z,7.70
2022-10-04T04:50:06.663Z,7.54
2022-10-04T04:52:36.411Z,7.62
2022-10-04T04:55:05.879Z,7.72
2022-10-04T04:57:35.121Z,7.53
2022-10-04T05:00:06.559Z,7.49
2022-10-04T05:02:37.052Z,7.78
2022-10-04T05:05:21.315Z,7.82
2022-10-04T05:07:50.295Z,7.65
2022-10-04T05:10:32.486Z,7.82
2022-10-04T05:13:02.889Z,7.80
2022-10-04T05:15:36.553Z,7.85
2022-10-04T05:18:17.918Z,7.88
2022-10-04T05:20:51.431Z,7.70
2022-10-04T05:23:20.068Z,7.69
2022-10-04T05:25:49.761Z,7.83
2022-10-04T05:28:19.475Z,7.64
2022-10-04T05:31:28.746Z,8.06
2022-10-04T05:33:59.895Z,7.96
2022-10-04T05:36:48.695Z,7.85
2022-10-04T05:39:26.254Z,7.87
2022-10-04T05:42:02.438Z,7.87
2022-10-04T05:44:32.966Z,7.89
2022-10-04T05:47:06.844Z,7.92
2022-10-04T05:49:44.151Z,7.95
2022-10-04T05:52:18.265Z,7.98
2022-10-04T05:54:46.579Z,7.89
2022-10-04T05:57:37.939Z,8.06
2022-10-04T06:00:17.111Z,8.01
2022-10-04T06:03:13.990Z,8.14
2022-10-04T06:05:50.651Z,8.08
2022-10-04T06:08:30.980Z,8.12
2022-10-04T06:11:11.319Z,8.05
2022-10-04T06:14:11.867Z,8.15
2022-10-04T06:16:55.741Z,8.10
2022-10-04T06:20:08.418Z,8.07
2022-10-04T06:22:45.055Z,7.68
2022-10-04T06:25:22.159Z,7.95
2022-10-04T06:27:58.245Z,8.13
2022-10-04T06:30:27.023Z,8.14
2022-10-04T06:33:20.105Z,8.21
2022-10-04T06:36:24.981Z,8.29
2022-10-04T06:39:14.292Z,8.35
2022-10-04T06:42:08.489Z,8.40
2022-10-04T06:44:49.507Z,8.51
2022-10-04T06:47:42.770Z,8.60
2022-10-04T06:50:27.490Z,8.67
2022-10-04T06:53:16.751Z,8.75
2022-10-04T06:56:07.401Z,8.83
2022-10-04T06:59:03.148Z,8.92
2022-10-04T07:01:33.665Z,8.90
2022-10-04T07:04:13.244Z,9.07
2022-10-04T07:06:49.436Z,9.10
2022-10-04T07:09:24.859Z,9.29
2022-10-04T07:12:00.851Z,9.35
2022-10-04T07:14:35.651Z,9.38
2022-10-04T07:17:06.648Z,9.57
2022-10-04T07:19:40.458Z,9.65
2022-10-04T07:22:19.027Z,9.72
2022-10-04T07:24:58.835Z,9.78
2022-10-04T07:27:33.121Z,9.77
2022-10-04T07:30:04.143Z,9.89
2022-10-04T07:32:38.909Z,9.93
2022-10-04T07:35:18.122Z,10.01
2022-10-04T07:37:53.915Z,9.70
2022-10-04T07:40:29.975Z,10.04
2022-10-04T07:43:02.295Z,9.89
2022-10-04T07:45:33.903Z,10.21
2022-10-04T07:48:12.578Z,10.24
2022-10-04T07:50:47.234Z,10.24
2022-10-04T07:53:19.723Z,10.21
2022-10-04T07:55:57.265Z,10.13
2022-10-04T07:58:46.316Z,10.39
2022-10-04T08:01:28.291Z,10.44
2022-10-04T08:04:08.128Z,10.51
2022-10-04T08:06:39.528Z,10.53
2022-10-04T08:09:28.353Z,10.62
2022-10-04T08:12:08.647Z,10.53
2022-10-04T08:14:52.595Z,10.75
2022-10-04T08:17:29.236Z,10.70
2022-10-04T08:20:08.738Z,10.83
2022-10-04T08:22:58.815Z,10.88
2022-10-04T08:25:33.480Z,10.78
2022-10-04T08:28:32.469Z,10.95
2022-10-04T08:31:12.398Z,10.99
2022-10-04T08:34:02.266Z,11.08
2022-10-04T08:36:47.977Z,10.93
2022-10-04T08:39:36.100Z,11.21
2022-10-04T08:42:34.158Z,11.23
2022-10-04T08:45:49.827Z,11.25
2022-10-04T08:49:02.150Z,11.28
2022-10-04T08:52:05.948Z,11.30
2022-10-04T08:55:05.747Z,11.37
2022-10-04T08:58:15.441Z,11.35
2022-10-04T09:01:00.341Z,11.30
2022-10-04T09:04:05.741Z,11.33
2022-10-04T09:06:56.595Z,11.28
2022-10-04T09:09:58.588Z,11.41
2022-10-04T09:12:54.219Z,11.44
2022-10-04T09:15:27.763Z,11.45
2022-10-04T09:18:03.873Z,11.17
2022-10-04T09:20:53.191Z,11.50
2022-10-04T09:23:50.832Z,11.52
2022-10-04T09:26:24.686Z,11.57
2022-10-04T09:29:15.961Z,11.57
2022-10-04T09:32:26.939Z,11.59
2022-10-04T09:35:19.927Z,11.68
2022-10-04T09:38:21.058Z,11.67
2022-10-04T09:41:12.180Z,11.75
2022-10-04T09:44:17.014Z,11.73
2022-10-04T09:47:24.444Z,11.57
2022-10-04T09:50:25.683Z,11.76
2022-10-04T09:53:04.682Z,11.82
2022-10-04T09:55:52.838Z,11.86
2022-10-04T09:58:43.667Z,11.88
2022-10-04T10:01:18.826Z,11.72
2022-10-04T10:04:12.162Z,11.98
2022-10-04T10:07:06.347Z,11.81
2022-10-04T10:10:00.510Z,12.08
2022-10-04T10:13:03.730Z,12.01
2022-10-04T10:15:43.984Z,12.18
2022-10-04T10:18:18.823Z,12.14
2022-10-04T10:21:23.407Z,12.16
2022-10-04T10:24:09.245Z,12.17
2022-10-04T10:26:53.993Z,12.24
2022-10-04T10:29:55.223Z,12.36
2022-10-04T10:32:52.792Z,12.39
2022-10-04T10:35:34.375Z,12.45
2022-10-04T10:38:21.498Z,12.51
2022-10-04T10:41:03.998Z,12.53
2022-10-04T10:44:02.281Z,12.63
2022-10-04T10:46:46.629Z,12.68
2022-10-04T10:49:27.990Z,12.73
2022-10-04T10:52:43.798Z,12.89
2022-10-04T10:55:54.195Z,12.84
2022-10-04T10:59:01.909Z,12.79
2022-10-04T11:01:53.683Z,12.80
2022-10-04T11:04:40.279Z,12.84
2022-10-04T11:07:38.238Z,12.89
2022-10-04T11:10:51.160Z,12.96
2022-10-04T11:13:58.232Z,13.03
2022-10-04T11:16:58.844Z,13.16
2022-10-04T11:20:04.918Z,13.33
2022-10-04T11:23:09.395Z,13.46
2022-10-04T11:26:08.201Z,13.57
2022-10-04T11:28:47.160Z,13.48
2022-10-04T11:31:46.332Z,13.71
2022-10-04T11:34:58.181Z,13.84
2022-10-04T11:37:43.843Z,13.75
2022-10-04T11:40:32.747Z,13.66
2022-10-04T11:43:23.915Z,13.91
2022-10-04T11:46:12.846Z,13.96
2022-10-04T11:48:53.400Z,14.05
2022-10-04T11:52:06.223Z,14.18
2022-10-04T11:55:03.639Z,14.26
2022-10-04T11:57:41.518Z,14.35
2022-10-04T12:00:18.235Z,14.46
2022-10-04T12:03:11.389Z,14.57
2022-10-04T12:06:03.012Z,14.67
2022-10-04T12:08:47.264Z,14.65
2022-10-04T12:12:05.054Z,14.34
2022-10-04T12:14:51.056Z,14.34
2022-10-04T12:17:50.311Z,14.43
2022-10-04T12:20:36.319Z,14.46
2022-10-04T12:23:25.077Z,14.39
2022-10-04T12:26:32.285Z,14.62
2022-10-04T12:29:29.010Z,14.63
2022-10-04T12:32:01.570Z,14.65
2022-10-04T12:34:41.167Z,14.40
2022-10-04T12:37:26.094Z,14.74
2022-10-04T12:40:08.802Z,14.70
2022-10-04T12:42:47.058Z,14.71
2022-10-04T12:45:35.371Z,14.72
2022-10-04T12:48:24.258Z,14.78
2022-10-04T12:51:05.494Z,14.79
2022-10-04T12:53:48.374Z,14.32
2022-10-04T12:56:24.953Z,14.83
2022-10-04T12:59:28.231Z,14.87
2022-10-04T13:02:09.766Z,14.83
2022-10-04T13:04:43.667Z,14.86
2022-10-04T13:07:40.028Z,14.83
2022-10-04T13:10:45.831Z,14.77
2022-10-04T13:13:38.075Z,14.73
2022-10-04T13:19:20.122Z,14.76
2022-10-04T13:22:37.892Z,14.74
2022-10-04T13:25:28.695Z,14.58
2022-10-04T13:28:03.990Z,14.65
2022-10-04T13:30:39.759Z,14.66
2022-10-04T13:33:26.658Z,14.68
2022-10-04T13:36:03.446Z,14.70
2022-10-04T13:39:16.525Z,14.66
2022-10-04T13:42:02.138Z,14.72
2022-10-04T13:45:00.091Z,14.75
2022-10-04T13:47:49.873Z,14.68
2022-10-04T13:50:34.417Z,14.56
2022-10-04T13:53:35.622Z,14.52
2022-10-04T13:56:34.221Z,14.50
2022-10-04T13:59:09.159Z,14.46
2022-10-04T14:02:17.286Z,14.53
2022-10-04T14:05:19.091Z,14.49
2022-10-04T14:08:24.476Z,14.35
2022-10-04T14:11:21.548Z,14.25
2022-10-04T14:14:20.694Z,14.21
2022-10-04T14:17:08.385Z,14.20
2022-10-04T14:20:01.336Z,14.19
2022-10-04T14:23:20.427Z,14.12
2022-10-04T14:26:36.723Z,14.04
2022-10-04T14:29:40.391Z,13.96
2022-10-04T14:32:51.294Z,13.88
2022-10-04T14:35:27.995Z,13.84
2022-10-04T14:38:26.492Z,13.78
2022-10-04T14:41:33.191Z,13.69
2022-10-04T14:44:33.102Z,13.61
2022-10-04T14:47:14.515Z,13.55
2022-10-04T14:50:00.222Z,13.47
2022-10-04T14:52:45.054Z,13.42
2022-10-04T14:55:31.506Z,13.37
2022-10-04T14:58:16.349Z,13.29
2022-10-04T15:01:09.800Z,13.26
2022-10-04T15:03:49.649Z,13.20
2022-10-04T15:06:37.852Z,13.19
2022-10-04T15:09:35.430Z,13.15
2022-10-04T15:12:40.651Z,13.05
2022-10-04T15:15:37.089Z,13.08
2022-10-04T15:18:25.563Z,13.02
2022-10-04T15:20:57.695Z,13.00
2022-10-04T15:23:38.043Z,13.02
2022-10-04T15:26:38.103Z,12.98
2022-10-04T15:29:24.130Z,12.91
2022-10-04T15:32:05.280Z,12.90
2022-10-04T15:34:46.008Z,12.88
2022-10-04T15:37:28.311Z,12.84
2022-10-04T15:40:09.927Z,12.81
2022-10-04T15:42:39.759Z,12.78
2022-10-04T15:45:37.087Z,12.77
2022-10-04T15:48:30.672Z,12.71
2022-10-04T15:51:09.267Z,12.62
2022-10-04T15:53:50.664Z,12.61
2022-10-04T15:56:33.816Z,12.57
2022-10-04T15:59:39.350Z,12.41
2022-10-04T16:02:36.987Z,12.48
2022-10-04T16:05:19.233Z,12.43
2022-10-04T16:08:06.479Z,12.37
2022-10-04T16:10:58.718Z,12.31
2022-10-04T16:14:00.791Z,12.28
2022-10-04T16:17:13.821Z,12.20
2022-10-04T16:20:06.184Z,12.16
2022-10-04T16:22:36.351Z,11.89
2022-10-04T16:25:36.831Z,12.14
2022-10-04T16:28:20.277Z,12.05
2022-10-04T16:30:59.943Z,11.89
2022-10-04T16:33:39.347Z,12.03
2022-10-04T16:36:14.877Z,12.05
2022-10-04T16:39:02.165Z,11.81
2022-10-04T16:41:40.276Z,12.04
2022-10-04T16:44:29.191Z,11.87
2022-10-04T16:47:01.582Z,11.68
2022-10-04T16:49:40.210Z,11.87
2022-10-04T16:52:28.322Z,11.70
2022-10-04T16:55:21.587Z,11.80
2022-10-04T16:58:23.219Z,11.77
2022-10-04T17:01:32.412Z,11.66
2022-10-04T17:04:14.998Z,11.64
2022-10-04T17:06:51.693Z,11.62
2022-10-04T17:09:28.846Z,11.64
2022-10-04T17:12:18.757Z,11.54
2022-10-04T17:15:11.255Z,11.57
2022-10-04T17:18:04.929Z,11.51
2022-10-04T17:20:52.836Z,11.40
2022-10-04T17:23:45.516Z,11.38
2022-10-04T17:26:26.559Z,11.31
2022-10-04T17:28:59.695Z,11.02
2022-10-04T17:31:37.012Z,11.35
2022-10-04T17:34:21.071Z,11.36
2022-10-04T17:36:51.546Z,11.23
2022-10-04T17:39:29.992Z,11.24
2022-10-04T17:42:15.543Z,11.28
2022-10-04T17:45:08.777Z,11.29
2022-10-04T17:47:59.371Z,11.33
2022-10-04T17:50:53.816Z,11.24
2022-10-04T17:53:46.871Z,11.08
2022-10-04T17:56:24.804Z,11.15
2022-10-04T17:58:57.062Z,11.15
2022-10-04T18:01:31.360Z,11.18
2022-10-04T18:04:09.042Z,11.28
2022-10-04T18:06:44.071Z,11.16
2022-10-04T18:09:22.071Z,10.99
2022-10-04T18:11:55.565Z,11.04
2022-10-04T18:14:47.671Z,11.09
2022-10-04T18:17:28.691Z,11.13
2022-10-04T18:20:09.511Z,11.07
2022-10-04T18:22:49.923Z,10.93
2022-10-04T18:25:23.070Z,11.09
2022-10-04T18:27:54.740Z,11.09
2022-10-04T18:30:23.992Z,10.86
2022-10-04T18:32:54.733Z,11.06
2022-10-04T18:35:26.860Z,11.07
2022-10-04T18:38:00.238Z,11.08
2022-10-04T18:40:34.240Z,10.68
2022-10-04T18:43:03.093Z,11.12
2022-10-04T18:45:33.908Z,11.03
2022-10-04T18:48:04.032Z,10.95
2022-10-04T18:50:35.868Z,11.17
2022-10-04T18:53:19.912Z,10.92
2022-10-04T18:55:53.258Z,11.03
2022-10-04T18:58:51.670Z,11.06
2022-10-04T19:01:59.607Z,11.03
2022-10-04T19:04:36.607Z,10.84
2022-10-04T19:07:12.439Z,10.93
2022-10-04T19:09:57.996Z,10.75
2022-10-04T19:12:32.424Z,10.85
2022-10-04T19:15:10.427Z,11.11
2022-10-04T19:17:50.684Z,10.75
2022-10-04T19:20:25.865Z,10.81
2022-10-04T19:23:02.744Z,11.11
2022-10-04T19:25:39.387Z,11.07
2022-10-04T19:28:12.343Z,11.18
2022-10-04T19:31:01.600Z,11.09
2022-10-04T19:33:39.844Z,11.18
2022-10-04T19:36:36.255Z,11.07
2022-10-04T19:39:25.691Z,11.10
2022-10-04T19:42:01.486Z,11.01
2022-10-04T19:44:54.287Z,11.14
2022-10-04T19:47:35.464Z,11.07
2022-10-04T19:50:11.724Z,11.21
2022-10-04T19:52:45.515Z,10.71
2022-10-04T19:55:21.357Z,11.01
2022-10-04T19:57:53.715Z,11.15
2022-10-04T20:00:22.379Z,11.15
2022-10-04T20:02:50.950Z,10.90
2022-10-04T20:05:25.287Z,11.27
2022-10-04T20:08:01.569Z,11.26
2022-10-04T20:10:34.882Z,11.18
2022-10-04T20:13:21.478Z,11.19
2022-10-04T20:15:52.418Z,11.18
2022-10-04T20:19:09.964Z,11.22
2022-10-04T20:21:38.361Z,11.19
2022-10-04T20:24:18.211Z,11.25
2022-10-04T20:26:55.096Z,11.29
2022-10-04T20:30:04.768Z,11.28
2022-10-04T20:32:57.035Z,11.18
2022-10-04T20:36:08.494Z,11.20
2022-10-04T20:38:55.332Z,11.25
2022-10-04T20:42:22.986Z,11.23
2022-10-04T20:44:55.702Z,11.20
2022-10-04T20:47:43.273Z,11.22
2022-10-04T20:50:27.077Z,11.28
2022-10-04T20:52:58.983Z,11.32
2022-10-04T20:55:29.494Z,11.23
2022-10-04T20:58:01.423Z,10.98
2022-10-04T21:00:35.084Z,11.19
2022-10-04T21:03:11.887Z,11.32
2022-10-04T21:05:41.896Z,11.22
2022-10-04T21:08:22.306Z,11.20
2022-10-04T21:11:08.049Z,11.20
2022-10-04T21:13:51.060Z,11.08
2022-10-04T21:16:47.355Z,11.06
2022-10-04T21:19:46.564Z,11.01
2022-10-04T21:22:39.756Z,11.14
2022-10-04T21:25:29.199Z,11.02
2022-10-04T21:28:24.609Z,10.94
2022-10-04T21:30:53.027Z,10.91
2022-10-04T21:33:21.670Z,10.89
2022-10-04T21:35:52.016Z,10.92
2022-10-04T21:38:22.435Z,10.93
2022-10-04T21:40:50.819Z,10.89
2022-10-04T21:43:19.144Z,10.86
2022-10-04T21:45:47.600Z,10.83
2022-10-04T21:48:15.974Z,10.80
2022-10-04T21:50:44.339Z,10.61
2022-10-04T21:53:13.791Z,10.79
2022-10-04T21:55:43.603Z,10.73
2022-10-04T21:58:12.152Z,10.53
2022-10-04T22:00:40.919Z,10.74
2022-10-04T22:03:09.444Z,10.77
2022-10-04T22:05:39.060Z,10.75
2022-10-04T22:08:07.780Z,10.80
2022-10-04T22:10:36.220Z,10.75
2022-10-04T22:13:06.004Z,10.80
2022-10-04T22:15:34.327Z,10.68
2022-10-04T22:18:02.726Z,10.60
2022-10-04T22:20:31.574Z,9.69
2022-10-04T22:22:59.971Z,10.06
2022-10-04T22:25:29.238Z,10.68
2022-10-04T22:27:57.664Z,10.58
2022-10-04T22:30:29.445Z,10.57
2022-10-04T22:32:59.947Z,10.56
2022-10-04T22:35:32.059Z,10.56
2022-10-04T22:38:01.420Z,10.53
2022-10-04T22:40:30.301Z,10.54
2022-10-04T22:43:00.973Z,10.61
2022-10-04T22:45:33.617Z,10.30
2022-10-04T22:48:08.070Z,10.59
2022-10-04T22:50:38.275Z,10.56
2022-10-04T22:53:13.456Z,10.57
2022-10-04T22:55:42.857Z,10.52
2022-10-04T22:58:14.464Z,10.54
2022-10-04T23:00:45.849Z,10.45
2022-10-04T23:03:26.510Z,10.47
2022-10-04T23:05:54.943Z,10.34
2022-10-04T23:08:23.235Z,10.45
2022-10-04T23:10:55.854Z,10.43
2022-10-04T23:13:25.063Z,10.46
2022-10-04T23:15:59.529Z,10.37
2022-10-04T23:18:28.483Z,10.38
2022-10-04T23:20:59.322Z,10.48
2022-10-04T23:23:29.430Z,10.13
2022-10-04T23:25:57.962Z,10.59
2022-10-04T23:28:26.448Z,10.62
2022-10-04T23:31:04.091Z,10.53
2022-10-04T23:33:32.482Z,10.59
2022-10-04T23:36:00.830Z,10.67
2022-10-04T23:38:30.263Z,10.67
2022-10-04T23:40:58.692Z,10.73
2022-10-04T23:43:29.270Z,10.76
2022-10-04T23:45:59.689Z,10.85
2022-10-04T23:48:32.149Z,10.87
2022-10-04T23:51:01.071Z,10.87
2022-10-04T23:53:31.751Z,10.71
2022-10-04T23:56:04.282Z,10.78
2022-10-04T23:58:37.754Z,10.77
